sensor_id;sensor_type;location;lat;lon;timestamp;pressure;altitude;pressure_sealevel;temperature;humidity
14594;BME280;7383;52.354;9.756;2023-07-20T00:01:45;-12814.22;;;20.77;100.00
14594;BME280;7383;52.354;9.756;2023-07-20T00:06:39;-12813.38;;;20.72;100.00
14594;BME280;7383;52.354;9.756;2023-07-20T00:09:05;-12812.00;;;20.63;100.00
14594;BME280;7383;52.354;9.756;2023-07-20T00:11:36;-12811.06;;;20.58;100.00
14594;BME280;7383;52.354;9.756;2023-07-20T00:14:03;-12810.63;;;20.55;100.00
14594;BME280;7383;52.354;9.756;2023-07-20T00:16:30;-12810.63;;;20.55;100.00
14594;BME280;7383;52.354;9.756;2023-07-20T00:18:57;-12810.28;;;20.53;100.00
14594;BME280;7383;52.354;9.756;2023-07-20T00:21:25;-12809.84;;;20.51;100.00
14594;BME280;7383;52.354;9.756;2023-07-20T00:23:51;-12809.41;;;20.48;100.00
14594;BME280;7383;52.354;9.756;2023-07-20T00:26:20;-12808.13;;;20.41;100.00
14594;BME280;7383;52.354;9.756;2023-07-20T00:28:49;-12807.44;;;20.37;100.00
14594;BME280;7383;52.354;9.756;2023-07-20T00:31:16;-12806.59;;;20.32;100.00
14594;BME280;7383;52.354;9.756;2023-07-20T00:33:43;-12805.38;;;20.25;100.00
14594;BME280;7383;52.354;9.756;2023-07-20T00:36:10;-12805.91;;;20.28;100.00
14594;BME280;7383;52.354;9.756;2023-07-20T00:38:36;-12805.91;;;20.28;100.00
14594;BME280;7383;52.354;9.756;2023-07-20T00:41:03;-12805.47;;;20.25;100.00
14594;BME280;7383;52.354;9.756;2023-07-20T00:43:31;-12805.53;;;20.26;100.00
14594;BME280;7383;52.354;9.756;2023-07-20T00:46:00;-12805.53;;;20.26;100.00
14594;BME280;7383;52.354;9.756;2023-07-20T00:48:28;-12805.53;;;20.26;100.00
14594;BME280;7383;52.354;9.756;2023-07-20T00:50:55;-12805.47;;;20.25;100.00
14594;BME280;7383;52.354;9.756;2023-07-20T00:53:21;-12805.38;;;20.25;100.00
14594;BME280;7383;52.354;9.756;2023-07-20T00:55:49;-12804.94;;;20.22;100.00
14594;BME280;7383;52.354;9.756;2023-07-20T00:58:15;-12804.44;;;20.19;100.00
14594;BME280;7383;52.354;9.756;2023-07-20T01:00:42;-12804.34;;;20.19;100.00
14594;BME280;7383;52.354;9.756;2023-07-20T01:03:10;-12803.41;;;20.13;100.00
14594;BME280;7383;52.354;9.756;2023-07-20T01:05:41;-12804.09;;;20.17;100.00
14594;BME280;7383;52.354;9.756;2023-07-20T01:08:17;-12803.13;;;20.11;100.00
14594;BME280;7383;52.354;9.756;2023-07-20T01:10:50;-12803.13;;;20.11;100.00
14594;BME280;7383;52.354;9.756;2023-07-20T01:13:20;-12803.06;;;20.11;100.00
14594;BME280;7383;52.354;9.756;2023-07-20T01:15:49;-12802.53;;;20.08;100.00
14594;BME280;7383;52.354;9.756;2023-07-20T01:18:18;-12802.53;;;20.08;100.00
14594;BME280;7383;52.354;9.756;2023-07-20T01:20:45;-12801.69;;;20.03;100.00
14594;BME280;7383;52.354;9.756;2023-07-20T01:23:25;-12801.59;;;20.02;100.00
14594;BME280;7383;52.354;9.756;2023-07-20T01:26:09;-12801.25;;;20.00;100.00
14594;BME280;7383;52.354;9.756;2023-07-20T01:28:54;-12801.16;;;20.00;100.00
14594;BME280;7383;52.354;9.756;2023-07-20T01:31:27;-12801.25;;;20.00;100.00
14594;BME280;7383;52.354;9.756;2023-07-20T01:33:57;-12801.25;;;20.00;100.00
14594;BME280;7383;52.354;9.756;2023-07-20T01:36:26;-12800.72;;;19.97;100.00
14594;BME280;7383;52.354;9.756;2023-07-20T01:38:54;-12800.81;;;19.98;100.00
14594;BME280;7383;52.354;9.756;2023-07-20T01:41:23;-12801.25;;;20.00;100.00
14594;BME280;7383;52.354;9.756;2023-07-20T01:43:54;-12800.03;;;19.93;100.00
14594;BME280;7383;52.354;9.756;2023-07-20T01:46:23;-12800.38;;;19.95;100.00
14594;BME280;7383;52.354;9.756;2023-07-20T01:48:51;-12800.31;;;19.95;100.00
14594;BME280;7383;52.354;9.756;2023-07-20T01:51:18;-12799.88;;;19.92;100.00
14594;BME280;7383;52.354;9.756;2023-07-20T01:53:45;-12799.63;;;19.91;100.00
14594;BME280;7383;52.354;9.756;2023-07-20T01:56:13;-12798.84;;;19.86;100.00
14594;BME280;7383;52.354;9.756;2023-07-20T01:58:40;-12798.31;;;19.83;100.00
14594;BME280;7383;52.354;9.756;2023-07-20T02:01:06;-12798.50;;;19.84;100.00
14594;BME280;7383;52.354;9.756;2023-07-20T02:03:33;-12798.50;;;19.84;100.00
14594;BME280;7383;52.354;9.756;2023-07-20T02:06:02;-12797.91;;;19.81;100.00
14594;BME280;7383;52.354;9.756;2023-07-20T02:08:29;-12797.56;;;19.79;100.00
14594;BME280;7383;52.354;9.756;2023-07-20T02:10:56;-12797.38;;;19.78;100.00
14594;BME280;7383;52.354;9.756;2023-07-20T02:13:23;-12797.38;;;19.78;100.00
14594;BME280;7383;52.354;9.756;2023-07-20T02:15:50;-12796.94;;;19.75;100.00
14594;BME280;7383;52.354;9.756;2023-07-20T02:18:17;-12797.28;;;19.77;100.00
14594;BME280;7383;52.354;9.756;2023-07-20T02:20:43;-12796.53;;;19.73;100.00
14594;BME280;7383;52.354;9.756;2023-07-20T02:23:12;-12796.19;;;19.71;100.00
14594;BME280;7383;52.354;9.756;2023-07-20T02:25:39;-12795.56;;;19.67;100.00
14594;BME280;7383;52.354;9.756;2023-07-20T02:28:08;-12795.50;;;19.67;100.00
14594;BME280;7383;52.354;9.756;2023-07-20T02:30:37;-12793.69;;;19.56;100.00
14594;BME280;7383;52.354;9.756;2023-07-20T02:33:04;-12793.50;;;19.55;100.00
14594;BME280;7383;52.354;9.756;2023-07-20T02:35:31;-12792.66;;;19.50;100.00
14594;BME280;7383;52.354;9.756;2023-07-20T02:37:58;-12791.19;;;19.41;100.00
14594;BME280;7383;52.354;9.756;2023-07-20T02:40:27;-12791.19;;;19.41;100.00
14594;BME280;7383;52.354;9.756;2023-07-20T02:42:54;-12791.44;;;19.43;100.00
14594;BME280;7383;52.354;9.756;2023-07-20T02:45:22;-12791.34;;;19.42;100.00
14594;BME280;7383;52.354;9.756;2023-07-20T02:47:49;-12791.44;;;19.43;100.00
14594;BME280;7383;52.354;9.756;2023-07-20T02:50:16;-12791.44;;;19.43;100.00
14594;BME280;7383;52.354;9.756;2023-07-20T02:52:42;-12791.97;;;19.46;100.00
14594;BME280;7383;52.354;9.756;2023-07-20T02:55:09;-12792.72;;;19.50;100.00
14594;BME280;7383;52.354;9.756;2023-07-20T02:57:38;-12793.59;;;19.55;100.00
14594;BME280;7383;52.354;9.756;2023-07-20T03:00:06;-12793.50;;;19.55;100.00
14594;BME280;7383;52.354;9.756;2023-07-20T03:02:33;-12793.25;;;19.53;100.00
14594;BME280;7383;52.354;9.756;2023-07-20T03:05:01;-12793.09;;;19.52;100.00
14594;BME280;7383;52.354;9.756;2023-07-20T03:07:31;-12792.66;;;19.50;100.00
14594;BME280;7383;52.354;9.756;2023-07-20T03:09:58;-12792.31;;;19.48;100.00
14594;BME280;7383;52.354;9.756;2023-07-20T03:12:24;-12791.34;;;19.42;100.00
14594;BME280;7383;52.354;9.756;2023-07-20T03:14:55;-12791.19;;;19.41;100.00
14594;BME280;7383;52.354;9.756;2023-07-20T03:17:22;-12790.31;;;19.36;100.00
14594;BME280;7383;52.354;9.756;2023-07-20T03:19:49;-12789.72;;;19.33;100.00
14594;BME280;7383;52.354;9.756;2023-07-20T03:22:18;-12789.63;;;19.32;100.00
14594;BME280;7383;52.354;9.756;2023-07-20T03:24:46;-12790.59;;;19.38;100.00
14594;BME280;7383;52.354;9.756;2023-07-20T03:27:13;-12791.09;;;19.41;100.00
14594;BME280;7383;52.354;9.756;2023-07-20T03:29:41;-12790.94;;;19.40;100.00
14594;BME280;7383;52.354;9.756;2023-07-20T03:32:12;-12791.53;;;19.43;100.00
14594;BME280;7383;52.354;9.756;2023-07-20T03:34:40;-12791.09;;;19.41;100.00
14594;BME280;7383;52.354;9.756;2023-07-20T03:37:09;-12792.03;;;19.46;100.00
14594;BME280;7383;52.354;9.756;2023-07-20T03:39:36;-12792.13;;;19.47;100.00
14594;BME280;7383;52.354;9.756;2023-07-20T03:42:03;-12792.66;;;19.50;100.00
14594;BME280;7383;52.354;9.756;2023-07-20T03:44:32;-12792.03;;;19.46;100.00
14594;BME280;7383;52.354;9.756;2023-07-20T03:46:58;-12791.78;;;19.45;100.00
14594;BME280;7383;52.354;9.756;2023-07-20T03:49:30;-12791.63;;;19.44;100.00
14594;BME280;7383;52.354;9.756;2023-07-20T03:51:56;-12791.44;;;19.43;100.00
14594;BME280;7383;52.354;9.756;2023-07-20T03:54:23;-12791.63;;;19.44;100.00
14594;BME280;7383;52.354;9.756;2023-07-20T03:56:50;-12792.22;;;19.47;100.00
14594;BME280;7383;52.354;9.756;2023-07-20T03:59:20;-12792.31;;;19.48;100.00
14594;BME280;7383;52.354;9.756;2023-07-20T04:01:49;-12792.31;;;19.48;100.00
14594;BME280;7383;52.354;9.756;2023-07-20T04:04:16;-12792.03;;;19.46;100.00
14594;BME280;7383;52.354;9.756;2023-07-20T04:06:45;-12792.56;;;19.49;100.00
14594;BME280;7383;52.354;9.756;2023-07-20T04:09:12;-12792.13;;;19.47;100.00
14594;BME280;7383;52.354;9.756;2023-07-20T04:11:44;-12792.56;;;19.49;100.00
14594;BME280;7383;52.354;9.756;2023-07-20T04:14:11;-12790.41;;;19.37;100.00
14594;BME280;7383;52.354;9.756;2023-07-20T04:16:38;-12790.41;;;19.37;100.00
14594;BME280;7383;52.354;9.756;2023-07-20T04:19:05;-12790.84;;;19.39;100.00
14594;BME280;7383;52.354;9.756;2023-07-20T04:21:31;-12790.50;;;19.37;100.00
14594;BME280;7383;52.354;9.756;2023-07-20T04:24:00;-12790.94;;;19.40;100.00
14594;BME280;7383;52.354;9.756;2023-07-20T04:26:27;-12790.41;;;19.37;100.00
14594;BME280;7383;52.354;9.756;2023-07-20T04:28:54;-12790.59;;;19.38;100.00
14594;BME280;7383;52.354;9.756;2023-07-20T04:31:21;-12790.22;;;19.36;100.00
14594;BME280;7383;52.354;9.756;2023-07-20T04:33:48;-12789.91;;;19.34;100.00
14594;BME280;7383;52.354;9.756;2023-07-20T04:36:15;-12789.81;;;19.33;100.00
14594;BME280;7383;52.354;9.756;2023-07-20T04:38:44;-12789.38;;;19.31;100.00
14594;BME280;7383;52.354;9.756;2023-07-20T04:41:13;-12789.19;;;19.30;100.00
14594;BME280;7383;52.354;9.756;2023-07-20T04:43:41;-12788.69;;;19.27;100.00
14594;BME280;7383;52.354;9.756;2023-07-20T04:46:08;-12788.34;;;19.25;100.00
14594;BME280;7383;52.354;9.756;2023-07-20T04:48:35;-12788.00;;;19.23;100.00
14594;BME280;7383;52.354;9.756;2023-07-20T04:51:03;-12786.88;;;19.16;100.00
14594;BME280;7383;52.354;9.756;2023-07-20T04:53:29;-12787.13;;;19.17;100.00
14594;BME280;7383;52.354;9.756;2023-07-20T04:55:57;-12786.78;;;19.15;100.00
14594;BME280;7383;52.354;9.756;2023-07-20T04:58:26;-12785.94;;;19.10;100.00
14594;BME280;7383;52.354;9.756;2023-07-20T05:00:52;-12785.00;;;19.05;100.00
14594;BME280;7383;52.354;9.756;2023-07-20T05:03:19;-12784.47;;;19.02;100.00
14594;BME280;7383;52.354;9.756;2023-07-20T05:05:46;-12784.56;;;19.02;100.00
14594;BME280;7383;52.354;9.756;2023-07-20T05:08:13;-12784.22;;;19.00;100.00
14594;BME280;7383;52.354;9.756;2023-07-20T05:10:44;-12784.91;;;19.04;100.00
14594;BME280;7383;52.354;9.756;2023-07-20T05:13:11;-12784.81;;;19.04;100.00
14594;BME280;7383;52.354;9.756;2023-07-20T05:15:39;-12785.06;;;19.05;100.00
14594;BME280;7383;52.354;9.756;2023-07-20T05:18:06;-12785.41;;;19.07;100.00
14594;BME280;7383;52.354;9.756;2023-07-20T05:20:36;-12785.31;;;19.07;100.00
14594;BME280;7383;52.354;9.756;2023-07-20T05:23:10;-12785.59;;;19.08;100.00
14594;BME280;7383;52.354;9.756;2023-07-20T05:25:37;-12786.38;;;19.13;100.00
14594;BME280;7383;52.354;9.756;2023-07-20T05:28:03;-12786.19;;;19.12;100.00
14594;BME280;7383;52.354;9.756;2023-07-20T05:33:37;-12787.41;;;19.19;100.00
14594;BME280;7383;52.354;9.756;2023-07-20T05:36:06;-12787.41;;;19.19;100.00
14594;BME280;7383;52.354;9.756;2023-07-20T05:38:33;-12787.41;;;19.19;100.00
14594;BME280;7383;52.354;9.756;2023-07-20T05:41:00;-12787.56;;;19.20;100.00
14594;BME280;7383;52.354;9.756;2023-07-20T05:43:29;-12787.91;;;19.22;100.00
14594;BME280;7383;52.354;9.756;2023-07-20T05:45:56;-12788.00;;;19.23;100.00
14594;BME280;7383;52.354;9.756;2023-07-20T05:48:23;-12787.81;;;19.22;100.00
14594;BME280;7383;52.354;9.756;2023-07-20T05:50:52;-12787.91;;;19.22;100.00
14594;BME280;7383;52.354;9.756;2023-07-20T05:53:19;-12788.34;;;19.25;100.00
14594;BME280;7383;52.354;9.756;2023-07-20T05:55:51;-12788.44;;;19.25;100.00
14594;BME280;7383;52.354;9.756;2023-07-20T05:58:18;-12787.81;;;19.22;100.00
14594;BME280;7383;52.354;9.756;2023-07-20T06:00:47;-12788.69;;;19.27;100.00
14594;BME280;7383;52.354;9.756;2023-07-20T06:03:14;-12789.19;;;19.30;100.00
14594;BME280;7383;52.354;9.756;2023-07-20T06:05:42;-12789.19;;;19.30;100.00
14594;BME280;7383;52.354;9.756;2023-07-20T06:08:10;-12789.53;;;19.32;100.00
14594;BME280;7383;52.354;9.756;2023-07-20T06:10:38;-12789.63;;;19.32;100.00
14594;BME280;7383;52.354;9.756;2023-07-20T06:13:06;-12789.91;;;19.34;100.00
14594;BME280;7383;52.354;9.756;2023-07-20T06:15:33;-12789.97;;;19.34;100.00
14594;BME280;7383;52.354;9.756;2023-07-20T06:18:01;-12790.94;;;19.40;100.00
14594;BME280;7383;52.354;9.756;2023-07-20T06:20:29;-12791.53;;;19.43;100.00
14594;BME280;7383;52.354;9.756;2023-07-20T06:22:56;-12792.03;;;19.46;100.00
14594;BME280;7383;52.354;9.756;2023-07-20T06:25:24;-12791.53;;;19.43;100.00
14594;BME280;7383;52.354;9.756;2023-07-20T06:27:51;-12791.63;;;19.44;100.00
14594;BME280;7383;52.354;9.756;2023-07-20T06:30:17;-12791.00;;;19.40;100.00
14594;BME280;7383;52.354;9.756;2023-07-20T06:32:46;-12791.53;;;19.43;100.00
14594;BME280;7383;52.354;9.756;2023-07-20T06:35:16;-12792.66;;;19.50;100.00
14594;BME280;7383;52.354;9.756;2023-07-20T06:37:45;-12794.28;;;19.59;100.00
14594;BME280;7383;52.354;9.756;2023-07-20T06:40:12;-12794.72;;;19.62;100.00
14594;BME280;7383;52.354;9.756;2023-07-20T06:42:42;-12795.06;;;19.64;100.00
14594;BME280;7383;52.354;9.756;2023-07-20T06:45:09;-12794.88;;;19.63;100.00
14594;BME280;7383;52.354;9.756;2023-07-20T06:47:38;-12795.16;;;19.64;100.00
14594;BME280;7383;52.354;9.756;2023-07-20T06:50:06;-12795.22;;;19.65;100.00
14594;BME280;7383;52.354;9.756;2023-07-20T06:52:33;-12795.31;;;19.65;100.00
14594;BME280;7383;52.354;9.756;2023-07-20T06:55:00;-12794.97;;;19.63;100.00
14594;BME280;7383;52.354;9.756;2023-07-20T06:57:27;-12795.06;;;19.64;100.00
14594;BME280;7383;52.354;9.756;2023-07-20T06:59:55;-12795.16;;;19.64;100.00
14594;BME280;7383;52.354;9.756;2023-07-20T07:02:22;-12796.09;;;19.70;100.00
14594;BME280;7383;52.354;9.756;2023-07-20T07:04:49;-12796.19;;;19.71;100.00
14594;BME280;7383;52.354;9.756;2023-07-20T07:07:16;-12795.84;;;19.69;100.00
14594;BME280;7383;52.354;9.756;2023-07-20T07:09:43;-12795.22;;;19.65;100.00
14594;BME280;7383;52.354;9.756;2023-07-20T07:12:11;-12796.44;;;19.72;100.00
14594;BME280;7383;52.354;9.756;2023-07-20T07:14:39;-12797.81;;;19.80;100.00
14594;BME280;7383;52.354;9.756;2023-07-20T07:17:07;-12798.31;;;19.83;100.00
14594;BME280;7383;52.354;9.756;2023-07-20T07:19:34;-12799.00;;;19.87;100.00
14594;BME280;7383;52.354;9.756;2023-07-20T07:22:01;-12799.44;;;19.90;100.00
14594;BME280;7383;52.354;9.756;2023-07-20T07:24:28;-12799.97;;;19.93;100.00
14594;BME280;7383;52.354;9.756;2023-07-20T07:26:58;-12799.53;;;19.90;100.00
14594;BME280;7383;52.354;9.756;2023-07-20T07:29:27;-12799.97;;;19.93;100.00
14594;BME280;7383;52.354;9.756;2023-07-20T07:32:16;-12800.38;;;19.95;100.00
14594;BME280;7383;52.354;9.756;2023-07-20T07:34:43;-12801.06;;;19.99;100.00
14594;BME280;7383;52.354;9.756;2023-07-20T07:37:11;-12802.19;;;20.06;100.00
14594;BME280;7383;52.354;9.756;2023-07-20T07:39:39;-12805.53;;;20.26;100.00
14594;BME280;7383;52.354;9.756;2023-07-20T07:42:12;-12806.16;;;20.29;100.00
14594;BME280;7383;52.354;9.756;2023-07-20T07:44:40;-12808.03;;;20.40;100.00
14594;BME280;7383;52.354;9.756;2023-07-20T07:47:07;-12807.44;;;20.37;100.00
14594;BME280;7383;52.354;9.756;2023-07-20T07:49:35;-12807.88;;;20.39;100.00
14594;BME280;7383;52.354;9.756;2023-07-20T07:52:02;-12808.63;;;20.44;100.00
14594;BME280;7383;52.354;9.756;2023-07-20T07:54:41;-12809.59;;;20.49;100.00
14594;BME280;7383;52.354;9.756;2023-07-20T07:57:08;-12809.69;;;20.50;100.00
14594;BME280;7383;52.354;9.756;2023-07-20T07:59:42;-12807.97;;;20.40;100.00
14594;BME280;7383;52.354;9.756;2023-07-20T08:02:14;-12804.84;;;20.22;100.00
14594;BME280;7383;52.354;9.756;2023-07-20T08:04:43;-12803.41;;;20.13;100.00
14594;BME280;7383;52.354;9.756;2023-07-20T08:07:11;-12801.34;;;20.01;100.00
14594;BME280;7383;52.354;9.756;2023-07-20T08:09:39;-12801.06;;;19.99;100.00
14594;BME280;7383;52.354;9.756;2023-07-20T08:12:11;-12803.75;;;20.15;100.00
14594;BME280;7383;52.354;9.756;2023-07-20T08:14:50;-12804.84;;;20.22;100.00
14594;BME280;7383;52.354;9.756;2023-07-20T08:17:25;-12805.97;;;20.28;100.00
14594;BME280;7383;52.354;9.756;2023-07-20T08:20:10;-12808.03;;;20.40;100.00
14594;BME280;7383;52.354;9.756;2023-07-20T08:22:37;-12807.44;;;20.37;100.00
14594;BME280;7383;52.354;9.756;2023-07-20T08:25:16;-12807.88;;;20.39;100.00
14594;BME280;7383;52.354;9.756;2023-07-20T08:27:43;-12808.81;;;20.45;100.00
14594;BME280;7383;52.354;9.756;2023-07-20T08:30:15;-12809.69;;;20.50;100.00
14594;BME280;7383;52.354;9.756;2023-07-20T08:32:53;-12809.00;;;20.46;100.00
14594;BME280;7383;52.354;9.756;2023-07-20T08:35:33;-12810.00;;;20.52;100.00
14594;BME280;7383;52.354;9.756;2023-07-20T08:38:04;-12809.75;;;20.50;100.00
14594;BME280;7383;52.354;9.756;2023-07-20T08:40:39;-12809.31;;;20.48;100.00
14594;BME280;7383;52.354;9.756;2023-07-20T08:43:11;-12809.41;;;20.48;100.00
14594;BME280;7383;52.354;9.756;2023-07-20T08:45:54;-12810.69;;;20.56;100.00
14594;BME280;7383;52.354;9.756;2023-07-20T08:48:22;-12813.28;;;20.71;100.00
14594;BME280;7383;52.354;9.756;2023-07-20T08:50:52;-12815.44;;;20.84;100.00
14594;BME280;7383;52.354;9.756;2023-07-20T08:53:23;-12817.75;;;20.97;100.00
14594;BME280;7383;52.354;9.756;2023-07-20T08:55:51;-12817.75;;;20.97;100.00
14594;BME280;7383;52.354;9.756;2023-07-20T08:58:20;-12818.25;;;21.00;100.00
14594;BME280;7383;52.354;9.756;2023-07-20T09:00:47;-12818.00;;;20.99;100.00
14594;BME280;7383;52.354;9.756;2023-07-20T09:03:19;-12818.34;;;21.01;100.00
14594;BME280;7383;52.354;9.756;2023-07-20T09:05:48;-12819.81;;;21.09;100.00
14594;BME280;7383;52.354;9.756;2023-07-20T09:08:19;-12822.38;;;21.25;100.00
14594;BME280;7383;52.354;9.756;2023-07-20T09:10:46;-12823.25;;;21.30;100.00
14594;BME280;7383;52.354;9.756;2023-07-20T09:13:14;-12824.88;;;21.39;100.00
14594;BME280;7383;52.354;9.756;2023-07-20T09:15:45;-12826.75;;;21.50;100.00
14594;BME280;7383;52.354;9.756;2023-07-20T09:18:23;-12827.78;;;21.56;100.00
14594;BME280;7383;52.354;9.756;2023-07-20T09:20:50;-12827.94;;;21.57;100.00
14594;BME280;7383;52.354;9.756;2023-07-20T09:23:29;-12829.41;;;21.66;100.00
14594;BME280;7383;52.354;9.756;2023-07-20T09:25:57;-12829.91;;;21.69;100.00
14594;BME280;7383;52.354;9.756;2023-07-20T09:28:24;-12828.63;;;21.62;100.00
14594;BME280;7383;52.354;9.756;2023-07-20T09:30:51;-12826.66;;;21.50;100.00
14594;BME280;7383;52.354;9.756;2023-07-20T09:33:21;-12825.97;;;21.46;100.00
14594;BME280;7383;52.354;9.756;2023-07-20T09:35:48;-12824.59;;;21.38;100.00
14594;BME280;7383;52.354;9.756;2023-07-20T09:38:17;-12824.19;;;21.35;100.00
14594;BME280;7383;52.354;9.756;2023-07-20T09:40:45;-12824.88;;;21.39;100.00
14594;BME280;7383;52.354;9.756;2023-07-20T09:43:12;-12824.25;;;21.36;100.00
14594;BME280;7383;52.354;9.756;2023-07-20T09:45:42;-12824.78;;;21.39;100.00
14594;BME280;7383;52.354;9.756;2023-07-20T09:48:12;-12826.66;;;21.50;100.00
14594;BME280;7383;52.354;9.756;2023-07-20T09:51:04;-12828.56;;;21.61;100.00
14594;BME280;7383;52.354;9.756;2023-07-20T09:53:50;-12828.22;;;21.59;100.00
14594;BME280;7383;52.354;9.756;2023-07-20T09:56:23;-12826.31;;;21.48;100.00
14594;BME280;7383;52.354;9.756;2023-07-20T09:58:54;-12823.56;;;21.32;100.00
14594;BME280;7383;52.354;9.756;2023-07-20T10:01:21;-12823.50;;;21.31;100.00
14594;BME280;7383;52.354;9.756;2023-07-20T10:04:05;-12826.06;;;21.46;100.00
14594;BME280;7383;52.354;9.756;2023-07-20T10:06:42;-12829.56;;;21.67;100.00
14594;BME280;7383;52.354;9.756;2023-07-20T10:09:17;-12829.66;;;21.68;100.00
14594;BME280;7383;52.354;9.756;2023-07-20T10:11:50;-12831.03;;;21.76;100.00
14594;BME280;7383;52.354;9.756;2023-07-20T10:14:20;-12832.66;;;21.85;100.00
14594;BME280;7383;52.354;9.756;2023-07-20T10:16:58;-12835.84;;;22.04;100.00
14594;BME280;7383;52.354;9.756;2023-07-20T10:19:46;-12837.28;;;22.13;100.00
14594;BME280;7383;52.354;9.756;2023-07-20T10:22:16;-12838.16;;;22.18;100.00
14594;BME280;7383;52.354;9.756;2023-07-20T10:25:07;-12838.91;;;22.22;100.00
14594;BME280;7383;52.354;9.756;2023-07-20T10:27:35;-12838.91;;;22.22;100.00
14594;BME280;7383;52.354;9.756;2023-07-20T10:30:03;-12839.19;;;22.24;100.00
14594;BME280;7383;52.354;9.756;2023-07-20T10:32:30;-12839.78;;;22.27;100.00
14594;BME280;7383;52.354;9.756;2023-07-20T10:34:57;-12839.53;;;22.26;100.00
14594;BME280;7383;52.354;9.756;2023-07-20T10:37:52;-12839.44;;;22.25;100.00
14594;BME280;7383;52.354;9.756;2023-07-20T10:40:31;-12837.03;;;22.11;100.00
14594;BME280;7383;52.354;9.756;2023-07-20T10:43:10;-12836.78;;;22.10;100.00
14594;BME280;7383;52.354;9.756;2023-07-20T10:45:49;-12835.91;;;22.04;100.00
14594;BME280;7383;52.354;9.756;2023-07-20T10:48:23;-12836.44;;;22.07;100.00
14594;BME280;7383;52.354;9.756;2023-07-20T10:51:12;-12839.00;;;22.23;100.00
14594;BME280;7383;52.354;9.756;2023-07-20T10:53:39;-12840.53;;;22.32;100.00
14594;BME280;7383;52.354;9.756;2023-07-20T10:56:07;-12842.16;;;22.41;100.00
14594;BME280;7383;52.354;9.756;2023-07-20T10:58:36;-12844.41;;;22.54;100.00
14594;BME280;7383;52.354;9.756;2023-07-20T11:01:06;-12844.75;;;22.56;100.00
14594;BME280;7383;52.354;9.756;2023-07-20T11:03:39;-12842.94;;;22.46;100.00
14594;BME280;7383;52.354;9.756;2023-07-20T11:06:31;-12843.47;;;22.49;100.00
14594;BME280;7383;52.354;9.756;2023-07-20T11:09:07;-12843.13;;;22.47;100.00
14594;BME280;7383;52.354;9.756;2023-07-20T11:11:43;-12842.44;;;22.43;100.00
14594;BME280;7383;52.354;9.756;2023-07-20T11:14:22;-12843.47;;;22.49;100.00
14594;BME280;7383;52.354;9.756;2023-07-20T11:16:50;-12844.13;;;22.53;100.00
14594;BME280;7383;52.354;9.756;2023-07-20T11:19:20;-12844.81;;;22.57;100.00
14594;BME280;7383;52.354;9.756;2023-07-20T11:21:51;-12845.09;;;22.58;100.00
14594;BME280;7383;52.354;9.756;2023-07-20T11:24:21;-12844.13;;;22.53;100.00
14594;BME280;7383;52.354;9.756;2023-07-20T11:26:50;-12842.84;;;22.45;100.00
14594;BME280;7383;52.354;9.756;2023-07-20T11:29:21;-12842.84;;;22.45;100.00
14594;BME280;7383;52.354;9.756;2023-07-20T11:31:51;-12845.94;;;22.64;100.00
14594;BME280;7383;52.354;9.756;2023-07-20T11:34:20;-12848.25;;;22.77;100.00
14594;BME280;7383;52.354;9.756;2023-07-20T11:36:49;-12849.69;;;22.86;100.00
14594;BME280;7383;52.354;9.756;2023-07-20T11:39:22;-12850.56;;;22.91;100.00
14594;BME280;7383;52.354;9.756;2023-07-20T11:41:52;-12849.97;;;22.87;100.00
14594;BME280;7383;52.354;9.756;2023-07-20T11:44:21;-12846.38;;;22.66;100.00
14594;BME280;7383;52.354;9.756;2023-07-20T11:46:59;-12845.09;;;22.58;100.00
14594;BME280;7383;52.354;9.756;2023-07-20T11:49:28;-12843.63;;;22.50;100.00
14594;BME280;7383;52.354;9.756;2023-07-20T11:52:04;-12843.13;;;22.47;100.00
14594;BME280;7383;52.354;9.756;2023-07-20T11:54:32;-12845.59;;;22.62;100.00
14594;BME280;7383;52.354;9.756;2023-07-20T11:57:01;-12847.13;;;22.71;100.00
14594;BME280;7383;52.354;9.756;2023-07-20T11:59:29;-12848.41;;;22.78;100.00
14594;BME280;7383;52.354;9.756;2023-07-20T12:01:56;-12850.66;;;22.91;100.00
14594;BME280;7383;52.354;9.756;2023-07-20T12:04:25;-12851.94;;;22.99;100.00
14594;BME280;7383;52.354;9.756;2023-07-20T12:06:53;-12853.91;;;23.11;100.00
14594;BME280;7383;52.354;9.756;2023-07-20T12:09:25;-12856.53;;;23.26;100.00
14594;BME280;7383;52.354;9.756;2023-07-20T12:12:09;-12859.19;;;23.42;100.00
14594;BME280;7383;52.354;9.756;2023-07-20T12:14:38;-12860.81;;;23.51;100.00
14594;BME280;7383;52.354;9.756;2023-07-20T12:17:08;-12863.63;;;23.68;100.00
14594;BME280;7383;52.354;9.756;2023-07-20T12:19:38;-12867.22;;;23.89;100.00
14594;BME280;7383;52.354;9.756;2023-07-20T12:22:06;-12868.66;;;23.98;100.00
14594;BME280;7383;52.354;9.756;2023-07-20T12:24:35;-12869.09;;;24.00;100.00
14594;BME280;7383;52.354;9.756;2023-07-20T12:27:04;-12867.81;;;23.93;100.00
14594;BME280;7383;52.354;9.756;2023-07-20T12:29:31;-12865.84;;;23.81;100.00
14594;BME280;7383;52.354;9.756;2023-07-20T12:32:03;-12865.44;;;23.79;100.00
14594;BME280;7383;52.354;9.756;2023-07-20T12:34:33;-12866.88;;;23.87;100.00
14594;BME280;7383;52.354;9.756;2023-07-20T12:37:05;-12867.72;;;23.92;100.00
14594;BME280;7383;52.354;9.756;2023-07-20T12:43:12;-12864.75;;;23.75;100.00
14594;BME280;7383;52.354;9.756;2023-07-20T12:45:39;-12865.69;;;23.80;100.00
14594;BME280;7383;52.354;9.756;2023-07-20T12:48:07;-12866.78;;;23.87;100.00
14594;BME280;7383;52.354;9.756;2023-07-20T12:50:38;-12869.59;;;24.03;100.00
14594;BME280;7383;52.354;9.756;2023-07-20T12:53:10;-12872.84;;;24.23;100.00
14594;BME280;7383;52.354;9.756;2023-07-20T12:55:39;-12876.69;;;24.45;100.00
14594;BME280;7383;52.354;9.756;2023-07-20T12:58:10;-12879.50;;;24.62;100.00
14594;BME280;7383;52.354;9.756;2023-07-20T13:00:39;-12877.28;;;24.49;100.00
14594;BME280;7383;52.354;9.756;2023-07-20T13:03:10;-12873.44;;;24.26;100.00
14594;BME280;7383;52.354;9.756;2023-07-20T13:05:37;-12869.00;;;24.00;100.00
14594;BME280;7383;52.354;9.756;2023-07-20T13:08:05;-12865.84;;;23.81;100.00
14594;BME280;7383;52.354;9.756;2023-07-20T13:10:32;-12865.00;;;23.76;100.00
14594;BME280;7383;52.354;9.756;2023-07-20T13:12:59;-12865.84;;;23.81;100.00